sensor_id;sensor_type;location;lat;lon;timestamp;temperature;humidity
13585;DHT22;6863;48.402;9.994;2023-06-14T00:01:24;12.80;65.90
13585;DHT22;6863;48.402;9.994;2023-06-14T00:03:50;12.70;66.40
13585;DHT22;6863;48.402;9.994;2023-06-14T00:06:16;12.70;67.50
13585;DHT22;6863;48.402;9.994;2023-06-14T00:08:42;12.60;66.50
13585;DHT22;6863;48.402;9.994;2023-06-14T00:11:08;12.70;66.70
13585;DHT22;6863;48.402;9.994;2023-06-14T00:13:34;12.60;66.50
13585;DHT22;6863;48.402;9.994;2023-06-14T00:16:00;12.60;66.80
13585;DHT22;6863;48.402;9.994;2023-06-14T00:18:25;12.60;67.00
13585;DHT22;6863;48.402;9.994;2023-06-14T00:20:55;12.50;67.00
13585;DHT22;6863;48.402;9.994;2023-06-14T00:23:21;12.50;67.40
13585;DHT22;6863;48.402;9.994;2023-06-14T00:25:46;12.50;67.70
13585;DHT22;6863;48.402;9.994;2023-06-14T00:28:12;12.50;67.80
13585;DHT22;6863;48.402;9.994;2023-06-14T00:30:38;12.50;67.90
13585;DHT22;6863;48.402;9.994;2023-06-14T00:33:04;12.40;67.50
13585;DHT22;6863;48.402;9.994;2023-06-14T00:35:29;12.40;67.80
13585;DHT22;6863;48.402;9.994;2023-06-14T00:37:55;12.40;68.20
13585;DHT22;6863;48.402;9.994;2023-06-14T00:40:21;12.30;68.80
13585;DHT22;6863;48.402;9.994;2023-06-14T00:42:47;12.30;68.60
13585;DHT22;6863;48.402;9.994;2023-06-14T00:45:13;12.30;69.00
13585;DHT22;6863;48.402;9.994;2023-06-14T00:47:41;12.20;69.20
13585;DHT22;6863;48.402;9.994;2023-06-14T00:50:09;12.10;69.40
13585;DHT22;6863;48.402;9.994;2023-06-14T00:52:35;12.10;69.70
13585;DHT22;6863;48.402;9.994;2023-06-14T00:55:01;12.10;70.90
13585;DHT22;6863;48.402;9.994;2023-06-14T00:57:27;12.10;70.40
13585;DHT22;6863;48.402;9.994;2023-06-14T00:59:55;12.00;70.60
13585;DHT22;6863;48.402;9.994;2023-06-14T01:02:21;12.00;71.00
13585;DHT22;6863;48.402;9.994;2023-06-14T01:04:48;12.00;71.40
13585;DHT22;6863;48.402;9.994;2023-06-14T01:07:38;12.00;71.70
13585;DHT22;6863;48.402;9.994;2023-06-14T01:11:12;11.90;71.60
13585;DHT22;6863;48.402;9.994;2023-06-14T01:13:24;11.90;72.00
13585;DHT22;6863;48.402;9.994;2023-06-14T01:15:53;11.90;71.80
13585;DHT22;6863;48.402;9.994;2023-06-14T01:18:19;11.90;72.00
13585;DHT22;6863;48.402;9.994;2023-06-14T01:20:47;11.80;71.90
13585;DHT22;6863;48.402;9.994;2023-06-14T01:23:17;11.90;71.70
13585;DHT22;6863;48.402;9.994;2023-06-14T01:25:43;11.80;71.50
13585;DHT22;6863;48.402;9.994;2023-06-14T01:28:10;11.90;71.80
13585;DHT22;6863;48.402;9.994;2023-06-14T01:30:41;11.80;71.70
13585;DHT22;6863;48.402;9.994;2023-06-14T01:33:18;11.80;72.00
13585;DHT22;6863;48.402;9.994;2023-06-14T01:35:48;11.80;72.20
13585;DHT22;6863;48.402;9.994;2023-06-14T01:38:14;11.80;72.60
13585;DHT22;6863;48.402;9.994;2023-06-14T01:40:42;11.60;72.60
13585;DHT22;6863;48.402;9.994;2023-06-14T01:43:11;11.60;73.50
13585;DHT22;6863;48.402;9.994;2023-06-14T01:45:37;11.50;73.90
13585;DHT22;6863;48.402;9.994;2023-06-14T01:48:03;11.40;74.20
13585;DHT22;6863;48.402;9.994;2023-06-14T01:50:30;11.30;74.80
13585;DHT22;6863;48.402;9.994;2023-06-14T01:52:57;11.30;75.10
13585;DHT22;6863;48.402;9.994;2023-06-14T01:55:22;11.30;75.00
13585;DHT22;6863;48.402;9.994;2023-06-14T01:57:50;11.30;75.10
13585;DHT22;6863;48.402;9.994;2023-06-14T02:00:16;11.40;75.10
13585;DHT22;6863;48.402;9.994;2023-06-14T02:02:43;11.30;75.40
13585;DHT22;6863;48.402;9.994;2023-06-14T02:05:09;11.30;75.30
13585;DHT22;6863;48.402;9.994;2023-06-14T02:07:36;11.40;74.90
13585;DHT22;6863;48.402;9.994;2023-06-14T02:10:03;11.40;75.00
13585;DHT22;6863;48.402;9.994;2023-06-14T02:12:28;11.30;74.70
13585;DHT22;6863;48.402;9.994;2023-06-14T02:14:54;11.30;74.70
13585;DHT22;6863;48.402;9.994;2023-06-14T02:17:20;11.40;74.50
13585;DHT22;6863;48.402;9.994;2023-06-14T02:19:45;11.40;74.20
13585;DHT22;6863;48.402;9.994;2023-06-14T02:22:11;11.30;74.20
13585;DHT22;6863;48.402;9.994;2023-06-14T02:24:37;11.30;74.20
13585;DHT22;6863;48.402;9.994;2023-06-14T02:27:03;11.30;74.60
13585;DHT22;6863;48.402;9.994;2023-06-14T02:29:28;11.30;74.70
13585;DHT22;6863;48.402;9.994;2023-06-14T02:31:54;11.30;74.50
13585;DHT22;6863;48.402;9.994;2023-06-14T02:34:20;11.30;74.20
13585;DHT22;6863;48.402;9.994;2023-06-14T02:36:47;11.30;74.60
13585;DHT22;6863;48.402;9.994;2023-06-14T02:39:13;11.20;75.00
13585;DHT22;6863;48.402;9.994;2023-06-14T02:41:39;11.20;75.30
13585;DHT22;6863;48.402;9.994;2023-06-14T02:44:05;11.20;75.60
13585;DHT22;6863;48.402;9.994;2023-06-14T02:46:31;11.20;75.20
13585;DHT22;6863;48.402;9.994;2023-06-14T02:48:57;11.30;74.80
13585;DHT22;6863;48.402;9.994;2023-06-14T02:51:23;11.20;74.90
13585;DHT22;6863;48.402;9.994;2023-06-14T02:53:48;11.20;75.30
13585;DHT22;6863;48.402;9.994;2023-06-14T02:56:14;11.10;76.40
13585;DHT22;6863;48.402;9.994;2023-06-14T02:58:39;11.10;75.80
13585;DHT22;6863;48.402;9.994;2023-06-14T03:01:06;11.10;75.80
13585;DHT22;6863;48.402;9.994;2023-06-14T03:03:33;11.00;75.90
13585;DHT22;6863;48.402;9.994;2023-06-14T03:05:59;11.10;76.10
13585;DHT22;6863;48.402;9.994;2023-06-14T03:08:30;11.10;76.40
13585;DHT22;6863;48.402;9.994;2023-06-14T03:10:57;11.20;76.20
13585;DHT22;6863;48.402;9.994;2023-06-14T03:13:23;11.20;75.80
13585;DHT22;6863;48.402;9.994;2023-06-14T03:15:49;11.10;75.80
13585;DHT22;6863;48.402;9.994;2023-06-14T03:18:17;11.10;75.80
13585;DHT22;6863;48.402;9.994;2023-06-14T03:20:43;11.00;76.40
13585;DHT22;6863;48.402;9.994;2023-06-14T03:23:11;11.00;76.50
13585;DHT22;6863;48.402;9.994;2023-06-14T03:25:37;11.00;76.50
13585;DHT22;6863;48.402;9.994;2023-06-14T03:28:04;11.10;76.20
13585;DHT22;6863;48.402;9.994;2023-06-14T03:30:31;11.10;76.00
13585;DHT22;6863;48.402;9.994;2023-06-14T03:32:57;11.10;76.00
13585;DHT22;6863;48.402;9.994;2023-06-14T03:35:23;11.10;75.90
13585;DHT22;6863;48.402;9.994;2023-06-14T03:37:49;11.00;76.00
13585;DHT22;6863;48.402;9.994;2023-06-14T03:40:17;11.10;76.60
13585;DHT22;6863;48.402;9.994;2023-06-14T03:42:43;11.00;76.70
13585;DHT22;6863;48.402;9.994;2023-06-14T03:45:09;11.00;76.90
13585;DHT22;6863;48.402;9.994;2023-06-14T03:47:35;11.00;77.10
13585;DHT22;6863;48.402;9.994;2023-06-14T03:50:04;11.00;77.40
13585;DHT22;6863;48.402;9.994;2023-06-14T03:52:31;11.00;77.60
13585;DHT22;6863;48.402;9.994;2023-06-14T03:54:56;11.00;77.90
13585;DHT22;6863;48.402;9.994;2023-06-14T03:57:23;11.00;77.90
13585;DHT22;6863;48.402;9.994;2023-06-14T03:59:49;11.00;78.00
13585;DHT22;6863;48.402;9.994;2023-06-14T04:02:15;11.10;78.00
13585;DHT22;6863;48.402;9.994;2023-06-14T04:04:41;11.10;77.70
13585;DHT22;6863;48.402;9.994;2023-06-14T04:07:10;11.10;77.60
13585;DHT22;6863;48.402;9.994;2023-06-14T04:09:37;11.20;77.90
13585;DHT22;6863;48.402;9.994;2023-06-14T04:12:03;11.20;77.50
13585;DHT22;6863;48.402;9.994;2023-06-14T04:14:29;11.30;77.20
13585;DHT22;6863;48.402;9.994;2023-06-14T04:16:56;11.40;77.30
13585;DHT22;6863;48.402;9.994;2023-06-14T04:19:21;11.40;77.30
13585;DHT22;6863;48.402;9.994;2023-06-14T04:21:47;11.40;77.20
13585;DHT22;6863;48.402;9.994;2023-06-14T04:24:13;11.50;77.10
13585;DHT22;6863;48.402;9.994;2023-06-14T04:26:45;11.60;76.90
13585;DHT22;6863;48.402;9.994;2023-06-14T04:29:14;11.60;76.70
13585;DHT22;6863;48.402;9.994;2023-06-14T04:31:42;11.70;76.70
13585;DHT22;6863;48.402;9.994;2023-06-14T04:34:08;11.80;76.50
13585;DHT22;6863;48.402;9.994;2023-06-14T04:36:34;11.90;76.10
13585;DHT22;6863;48.402;9.994;2023-06-14T04:39:01;12.00;75.90
13585;DHT22;6863;48.402;9.994;2023-06-14T04:41:28;12.10;75.60
13585;DHT22;6863;48.402;9.994;2023-06-14T04:44:02;12.20;75.00
13585;DHT22;6863;48.402;9.994;2023-06-14T04:46:28;12.40;74.70
13585;DHT22;6863;48.402;9.994;2023-06-14T04:49:00;12.60;74.10
13585;DHT22;6863;48.402;9.994;2023-06-14T04:51:27;12.70;73.80
13585;DHT22;6863;48.402;9.994;2023-06-14T04:53:58;12.80;73.40
13585;DHT22;6863;48.402;9.994;2023-06-14T04:56:24;13.00;72.90
13585;DHT22;6863;48.402;9.994;2023-06-14T04:58:51;13.10;72.70
13585;DHT22;6863;48.402;9.994;2023-06-14T05:01:18;13.20;72.50
13585;DHT22;6863;48.402;9.994;2023-06-14T05:03:44;13.30;72.00
13585;DHT22;6863;48.402;9.994;2023-06-14T05:06:10;13.50;71.90
13585;DHT22;6863;48.402;9.994;2023-06-14T05:08:37;13.60;71.40
13585;DHT22;6863;48.402;9.994;2023-06-14T05:11:02;13.80;71.30
13585;DHT22;6863;48.402;9.994;2023-06-14T05:13:28;13.90;71.10
13585;DHT22;6863;48.402;9.994;2023-06-14T05:15:54;14.10;70.60
13585;DHT22;6863;48.402;9.994;2023-06-14T05:18:19;14.30;69.60
13585;DHT22;6863;48.402;9.994;2023-06-14T05:20:45;14.50;68.20
13585;DHT22;6863;48.402;9.994;2023-06-14T05:23:11;14.50;67.10
13585;DHT22;6863;48.402;9.994;2023-06-14T05:25:42;14.70;66.60
13585;DHT22;6863;48.402;9.994;2023-06-14T05:28:08;14.80;66.40
13585;DHT22;6863;48.402;9.994;2023-06-14T05:30:34;14.90;65.60
13585;DHT22;6863;48.402;9.994;2023-06-14T05:33:00;15.00;66.00
13585;DHT22;6863;48.402;9.994;2023-06-14T05:35:25;15.00;64.70
13585;DHT22;6863;48.402;9.994;2023-06-14T05:37:52;15.10;64.60
13585;DHT22;6863;48.402;9.994;2023-06-14T05:40:19;15.30;64.70
13585;DHT22;6863;48.402;9.994;2023-06-14T05:42:45;15.30;63.10
13585;DHT22;6863;48.402;9.994;2023-06-14T05:45:11;15.50;63.10
13585;DHT22;6863;48.402;9.994;2023-06-14T05:47:37;15.70;62.70
13585;DHT22;6863;48.402;9.994;2023-06-14T05:50:03;15.70;61.00
13585;DHT22;6863;48.402;9.994;2023-06-14T05:52:28;15.60;61.50
13585;DHT22;6863;48.402;9.994;2023-06-14T05:54:55;15.70;61.30
13585;DHT22;6863;48.402;9.994;2023-06-14T05:57:20;15.80;61.40
13585;DHT22;6863;48.402;9.994;2023-06-14T05:59:46;15.80;61.50
13585;DHT22;6863;48.402;9.994;2023-06-14T06:02:12;15.80;61.50
13585;DHT22;6863;48.402;9.994;2023-06-14T06:04:37;15.90;61.50
13585;DHT22;6863;48.402;9.994;2023-06-14T06:07:03;16.00;61.60
13585;DHT22;6863;48.402;9.994;2023-06-14T06:09:29;16.00;60.60
13585;DHT22;6863;48.402;9.994;2023-06-14T06:11:55;16.00;60.70
13585;DHT22;6863;48.402;9.994;2023-06-14T06:14:20;16.10;61.30
13585;DHT22;6863;48.402;9.994;2023-06-14T06:16:46;16.10;60.50
13585;DHT22;6863;48.402;9.994;2023-06-14T06:19:12;16.10;61.10
13585;DHT22;6863;48.402;9.994;2023-06-14T06:21:37;16.30;61.00
13585;DHT22;6863;48.402;9.994;2023-06-14T06:24:04;16.30;60.60
13585;DHT22;6863;48.402;9.994;2023-06-14T06:26:31;16.40;60.60
13585;DHT22;6863;48.402;9.994;2023-06-14T06:28:57;16.50;59.80
13585;DHT22;6863;48.402;9.994;2023-06-14T06:31:23;16.60;59.70
13585;DHT22;6863;48.402;9.994;2023-06-14T06:33:50;16.70;60.00
13585;DHT22;6863;48.402;9.994;2023-06-14T06:36:16;16.90;59.90
13585;DHT22;6863;48.402;9.994;2023-06-14T06:38:42;16.90;59.80
13585;DHT22;6863;48.402;9.994;2023-06-14T06:41:07;17.20;59.20
13585;DHT22;6863;48.402;9.994;2023-06-14T06:43:33;17.30;58.90
13585;DHT22;6863;48.402;9.994;2023-06-14T06:45:58;17.50;58.40
13585;DHT22;6863;48.402;9.994;2023-06-14T06:48:24;17.60;58.40
13585;DHT22;6863;48.402;9.994;2023-06-14T06:50:50;17.80;58.60
13585;DHT22;6863;48.402;9.994;2023-06-14T06:53:16;17.80;58.30
13585;DHT22;6863;48.402;9.994;2023-06-14T06:55:44;17.90;58.30
13585;DHT22;6863;48.402;9.994;2023-06-14T06:58:09;18.00;58.60
13585;DHT22;6863;48.402;9.994;2023-06-14T07:00:35;18.20;58.90
13585;DHT22;6863;48.402;9.994;2023-06-14T07:03:01;18.40;58.50
13585;DHT22;6863;48.402;9.994;2023-06-14T07:05:27;18.60;58.60
13585;DHT22;6863;48.402;9.994;2023-06-14T07:07:52;18.60;58.20
13585;DHT22;6863;48.402;9.994;2023-06-14T07:10:18;18.80;57.80
13585;DHT22;6863;48.402;9.994;2023-06-14T07:12:44;18.70;55.80
13585;DHT22;6863;48.402;9.994;2023-06-14T07:15:10;18.90;56.50
13585;DHT22;6863;48.402;9.994;2023-06-14T07:17:36;19.10;56.50
13585;DHT22;6863;48.402;9.994;2023-06-14T07:20:03;19.30;56.70
13585;DHT22;6863;48.402;9.994;2023-06-14T07:22:38;19.50;56.40
13585;DHT22;6863;48.402;9.994;2023-06-14T07:25:04;19.70;56.60
13585;DHT22;6863;48.402;9.994;2023-06-14T07:27:29;19.80;56.40
13585;DHT22;6863;48.402;9.994;2023-06-14T07:29:55;20.10;56.50
13585;DHT22;6863;48.402;9.994;2023-06-14T07:32:21;20.30;56.60
13585;DHT22;6863;48.402;9.994;2023-06-14T07:34:46;20.50;56.30
13585;DHT22;6863;48.402;9.994;2023-06-14T07:37:12;20.70;54.80
13585;DHT22;6863;48.402;9.994;2023-06-14T07:39:38;20.90;54.10
13585;DHT22;6863;48.402;9.994;2023-06-14T07:42:04;21.00;52.70
13585;DHT22;6863;48.402;9.994;2023-06-14T07:44:30;20.90;53.30
13585;DHT22;6863;48.402;9.994;2023-06-14T07:46:56;21.00;53.20
13585;DHT22;6863;48.402;9.994;2023-06-14T07:49:25;21.20;52.70
13585;DHT22;6863;48.402;9.994;2023-06-14T07:51:51;21.40;52.60
13585;DHT22;6863;48.402;9.994;2023-06-14T07:54:16;21.60;53.30
13585;DHT22;6863;48.402;9.994;2023-06-14T07:59:07;21.80;51.40
13585;DHT22;6863;48.402;9.994;2023-06-14T08:01:34;21.90;51.80
13585;DHT22;6863;48.402;9.994;2023-06-14T08:04:00;22.10;51.60
13585;DHT22;6863;48.402;9.994;2023-06-14T08:06:26;22.20;51.70
13585;DHT22;6863;48.402;9.994;2023-06-14T08:08:55;22.20;51.10
13585;DHT22;6863;48.402;9.994;2023-06-14T08:11:24;22.20;50.40
13585;DHT22;6863;48.402;9.994;2023-06-14T08:13:49;22.50;50.20
13585;DHT22;6863;48.402;9.994;2023-06-14T08:16:15;22.60;50.20
13585;DHT22;6863;48.402;9.994;2023-06-14T08:18:43;22.90;49.80
13585;DHT22;6863;48.402;9.994;2023-06-14T08:21:09;22.90;49.30
13585;DHT22;6863;48.402;9.994;2023-06-14T08:23:34;23.20;49.00
13585;DHT22;6863;48.402;9.994;2023-06-14T08:26:01;23.30;48.20
13585;DHT22;6863;48.402;9.994;2023-06-14T08:28:29;23.50;48.40
13585;DHT22;6863;48.402;9.994;2023-06-14T08:30:54;23.80;47.70
13585;DHT22;6863;48.402;9.994;2023-06-14T08:33:21;23.80;47.30
13585;DHT22;6863;48.402;9.994;2023-06-14T08:35:46;24.00;46.50
13585;DHT22;6863;48.402;9.994;2023-06-14T08:38:12;24.00;46.60
13585;DHT22;6863;48.402;9.994;2023-06-14T08:40:38;24.20;45.80
13585;DHT22;6863;48.402;9.994;2023-06-14T08:43:05;24.30;45.90
13585;DHT22;6863;48.402;9.994;2023-06-14T08:45:31;24.50;45.40
13585;DHT22;6863;48.402;9.994;2023-06-14T08:47:56;25.00;44.60
13585;DHT22;6863;48.402;9.994;2023-06-14T08:50:25;25.10;44.10
13585;DHT22;6863;48.402;9.994;2023-06-14T08:52:55;25.40;42.60
13585;DHT22;6863;48.402;9.994;2023-06-14T08:55:23;25.60;41.80
13585;DHT22;6863;48.402;9.994;2023-06-14T08:57:51;25.80;41.30
13585;DHT22;6863;48.402;9.994;2023-06-14T09:02:54;26.40;38.00
13585;DHT22;6863;48.402;9.994;2023-06-14T09:05:24;26.80;38.60
13585;DHT22;6863;48.402;9.994;2023-06-14T09:07:50;26.70;37.80
13585;DHT22;6863;48.402;9.994;2023-06-14T09:10:16;26.80;35.50
13585;DHT22;6863;48.402;9.994;2023-06-14T09:12:45;27.40;35.20
13585;DHT22;6863;48.402;9.994;2023-06-14T09:15:12;27.70;34.30
13585;DHT22;6863;48.402;9.994;2023-06-14T09:17:43;27.50;36.20
13585;DHT22;6863;48.402;9.994;2023-06-14T09:20:09;27.70;35.40
13585;DHT22;6863;48.402;9.994;2023-06-14T09:22:46;27.90;34.40
13585;DHT22;6863;48.402;9.994;2023-06-14T09:25:12;28.70;32.10
13585;DHT22;6863;48.402;9.994;2023-06-14T09:27:40;29.60;31.60
13585;DHT22;6863;48.402;9.994;2023-06-14T09:30:09;30.10;30.20
13585;DHT22;6863;48.402;9.994;2023-06-14T09:32:39;29.90;31.40
13585;DHT22;6863;48.402;9.994;2023-06-14T09:35:07;30.70;31.40
13585;DHT22;6863;48.402;9.994;2023-06-14T09:37:36;31.90;28.90
13585;DHT22;6863;48.402;9.994;2023-06-14T09:40:06;32.60;29.10
13585;DHT22;6863;48.402;9.994;2023-06-14T09:42:32;33.40;28.20
13585;DHT22;6863;48.402;9.994;2023-06-14T09:45:02;33.70;27.20
13585;DHT22;6863;48.402;9.994;2023-06-14T09:47:27;34.40;26.30
13585;DHT22;6863;48.402;9.994;2023-06-14T09:49:55;34.80;24.60
13585;DHT22;6863;48.402;9.994;2023-06-14T09:52:21;34.70;25.50
13585;DHT22;6863;48.402;9.994;2023-06-14T09:54:48;34.90;24.90
13585;DHT22;6863;48.402;9.994;2023-06-14T09:57:21;34.90;25.30
13585;DHT22;6863;48.402;9.994;2023-06-14T09:59:48;36.10;23.70
13585;DHT22;6863;48.402;9.994;2023-06-14T10:02:35;36.50;23.00
13585;DHT22;6863;48.402;9.994;2023-06-14T10:05:07;35.90;22.70
13585;DHT22;6863;48.402;9.994;2023-06-14T10:07:42;35.70;23.30
13585;DHT22;6863;48.402;9.994;2023-06-14T10:10:08;36.20;22.30
13585;DHT22;6863;48.402;9.994;2023-06-14T10:12:34;36.60;21.90
13585;DHT22;6863;48.402;9.994;2023-06-14T10:15:00;37.30;21.60
13585;DHT22;6863;48.402;9.994;2023-06-14T10:17:42;38.20;21.10
13585;DHT22;6863;48.402;9.994;2023-06-14T10:20:26;39.10;20.80
13585;DHT22;6863;48.402;9.994;2023-06-14T10:23:09;39.90;19.90
13585;DHT22;6863;48.402;9.994;2023-06-14T10:25:35;38.90;20.90
13585;DHT22;6863;48.402;9.994;2023-06-14T10:28:20;38.40;21.20
13585;DHT22;6863;48.402;9.994;2023-06-14T10:33:35;40.00;19.90
13585;DHT22;6863;48.402;9.994;2023-06-14T10:38:33;41.80;19.00
13585;DHT22;6863;48.402;9.994;2023-06-14T10:41:00;41.80;19.00
13585;DHT22;6863;48.402;9.994;2023-06-14T10:43:25;40.90;19.40
13585;DHT22;6863;48.402;9.994;2023-06-14T10:46:18;40.80;19.10
13585;DHT22;6863;48.402;9.994;2023-06-14T10:48:46;40.30;19.30
13585;DHT22;6863;48.402;9.994;2023-06-14T10:51:16;41.10;18.70
13585;DHT22;6863;48.402;9.994;2023-06-14T10:53:48;41.30;18.80
13585;DHT22;6863;48.402;9.994;2023-06-14T10:58:57;41.30;18.10
13585;DHT22;6863;48.402;9.994;2023-06-14T11:03:51;40.80;18.80
13585;DHT22;6863;48.402;9.994;2023-06-14T11:06:22;40.50;19.20
13585;DHT22;6863;48.402;9.994;2023-06-14T11:14:10;41.50;18.00
13585;DHT22;6863;48.402;9.994;2023-06-14T11:16:36;41.10;18.50
13585;DHT22;6863;48.402;9.994;2023-06-14T11:19:02;41.90;18.30
13585;DHT22;6863;48.402;9.994;2023-06-14T11:21:32;41.30;18.20
13585;DHT22;6863;48.402;9.994;2023-06-14T11:23:58;41.40;18.00
13585;DHT22;6863;48.402;9.994;2023-06-14T11:26:30;43.50;16.60
13585;DHT22;6863;48.402;9.994;2023-06-14T11:28:58;44.40;17.60
13585;DHT22;6863;48.402;9.994;2023-06-14T11:31:25;44.10;16.80
13585;DHT22;6863;48.402;9.994;2023-06-14T11:33:51;43.60;16.80
13585;DHT22;6863;48.402;9.994;2023-06-14T11:36:18;43.50;17.00
13585;DHT22;6863;48.402;9.994;2023-06-14T11:38:44;43.00;17.10
13585;DHT22;6863;48.402;9.994;2023-06-14T11:41:09;45.00;16.50
13585;DHT22;6863;48.402;9.994;2023-06-14T11:43:39;45.40;16.30
13585;DHT22;6863;48.402;9.994;2023-06-14T11:46:13;46.40;15.80
13585;DHT22;6863;48.402;9.994;2023-06-14T11:48:41;47.00;15.00
13585;DHT22;6863;48.402;9.994;2023-06-14T11:51:07;46.80;14.80
13585;DHT22;6863;48.402;9.994;2023-06-14T11:53:33;45.10;15.60
13585;DHT22;6863;48.402;9.994;2023-06-14T11:55:59;46.20;14.90
13585;DHT22;6863;48.402;9.994;2023-06-14T11:58:26;46.70;15.00
13585;DHT22;6863;48.402;9.994;2023-06-14T12:03:29;43.90;15.90
13585;DHT22;6863;48.402;9.994;2023-06-14T12:06:08;44.30;15.70
13585;DHT22;6863;48.402;9.994;2023-06-14T12:08:35;45.30;15.60
13585;DHT22;6863;48.402;9.994;2023-06-14T12:11:06;44.70;16.10
13585;DHT22;6863;48.402;9.994;2023-06-14T12:13:33;43.60;16.30
13585;DHT22;6863;48.402;9.994;2023-06-14T12:15:59;40.80;17.60
13585;DHT22;6863;48.402;9.994;2023-06-14T12:18:34;38.40;18.50
13585;DHT22;6863;48.402;9.994;2023-06-14T12:21:00;37.10;19.30
13585;DHT22;6863;48.402;9.994;2023-06-14T12:23:48;36.10;20.70
13585;DHT22;6863;48.402;9.994;2023-06-14T12:26:16;39.40;18.90
13585;DHT22;6863;48.402;9.994;2023-06-14T12:28:44;41.80;16.90
13585;DHT22;6863;48.402;9.994;2023-06-14T12:31:11;41.30;17.50
13585;DHT22;6863;48.402;9.994;2023-06-14T12:33:38;43.10;16.70
13585;DHT22;6863;48.402;9.994;2023-06-14T12:36:04;44.90;15.90
13585;DHT22;6863;48.402;9.994;2023-06-14T12:38:32;45.80;15.30
13585;DHT22;6863;48.402;9.994;2023-06-14T12:40:57;45.10;15.80
13585;DHT22;6863;48.402;9.994;2023-06-14T12:43:23;44.50;16.20
13585;DHT22;6863;48.402;9.994;2023-06-14T12:45:49;43.90;16.60
13585;DHT22;6863;48.402;9.994;2023-06-14T12:48:15;44.50;16.40
13585;DHT22;6863;48.402;9.994;2023-06-14T12:50:41;45.30;15.70
13585;DHT22;6863;48.402;9.994;2023-06-14T12:53:07;46.00;15.20
13585;DHT22;6863;48.402;9.994;2023-06-14T12:55:33;45.30;15.40
13585;DHT22;6863;48.402;9.994;2023-06-14T12:57:58;45.80;15.30
13585;DHT22;6863;48.402;9.994;2023-06-14T13:00:24;45.30;15.50
13585;DHT22;6863;48.402;9.994;2023-06-14T13:02:51;46.00;15.10
13585;DHT22;6863;48.402;9.994;2023-06-14T13:05:17;44.70;15.60
13585;DHT22;6863;48.402;9.994;2023-06-14T13:07:43;43.50;16.40
13585;DHT22;6863;48.402;9.994;2023-06-14T13:10:10;45.10;15.50
13585;DHT22;6863;48.402;9.994;2023-06-14T13:12:36;45.90;14.80
13585;DHT22;6863;48.402;9.994;2023-06-14T13:15:02;46.00;14.90
13585;DHT22;6863;48.402;9.994;2023-06-14T13:17:28;46.30;14.80
13585;DHT22;6863;48.402;9.994;2023-06-14T13:19:54;45.50;14.50
13585;DHT22;6863;48.402;9.994;2023-06-14T13:22:20;42.50;15.90
13585;DHT22;6863;48.402;9.994;2023-06-14T13:24:45;39.80;17.30
13585;DHT22;6863;48.402;9.994;2023-06-14T13:27:11;37.20;18.80
13585;DHT22;6863;48.402;9.994;2023-06-14T13:29:39;36.10;19.70
13585;DHT22;6863;48.402;9.994;2023-06-14T13:32:05;37.50;19.50
13585;DHT22;6863;48.402;9.994;2023-06-14T13:34:31;39.20;18.30
13585;DHT22;6863;48.402;9.994;2023-06-14T13:36:57;40.40;18.10
13585;DHT22;6863;48.402;9.994;2023-06-14T13:39:25;41.70;17.00
13585;DHT22;6863;48.402;9.994;2023-06-14T13:41:53;41.20;17.10
13585;DHT22;6863;48.402;9.994;2023-06-14T13:44:19;39.90;17.60
13585;DHT22;6863;48.402;9.994;2023-06-14T13:46:46;40.50;17.40
13585;DHT22;6863;48.402;9.994;2023-06-14T13:49:12;39.70;17.50
13585;DHT22;6863;48.402;9.994;2023-06-14T13:51:38;37.20;18.80
13585;DHT22;6863;48.402;9.994;2023-06-14T13:54:06;35.40;19.80
13585;DHT22;6863;48.402;9.994;2023-06-14T13:56:32;33.80;21.80
13585;DHT22;6863;48.402;9.994;2023-06-14T13:58:58;34.70;21.00
13585;DHT22;6863;48.402;9.994;2023-06-14T14:01:24;36.20;20.30
13585;DHT22;6863;48.402;9.994;2023-06-14T14:03:51;37.50;19.30
13585;DHT22;6863;48.402;9.994;2023-06-14T14:06:16;38.50;18.50
13585;DHT22;6863;48.402;9.994;2023-06-14T14:08:42;39.30;17.90
13585;DHT22;6863;48.402;9.994;2023-06-14T14:11:09;40.10;17.60
13585;DHT22;6863;48.402;9.994;2023-06-14T14:13:35;40.10;17.80
13585;DHT22;6863;48.402;9.994;2023-06-14T14:16:02;41.30;17.10
13585;DHT22;6863;48.402;9.994;2023-06-14T14:18:28;40.60;18.00
13585;DHT22;6863;48.402;9.994;2023-06-14T14:20:54;40.40;17.90
13585;DHT22;6863;48.402;9.994;2023-06-14T14:23:21;40.00;17.80
13585;DHT22;6863;48.402;9.994;2023-06-14T14:25:47;39.10;18.40
13585;DHT22;6863;48.402;9.994;2023-06-14T14:28:13;39.30;18.40
13585;DHT22;6863;48.402;9.994;2023-06-14T14:30:41;38.30;18.90
13585;DHT22;6863;48.402;9.994;2023-06-14T14:33:07;38.10;19.40
13585;DHT22;6863;48.402;9.994;2023-06-14T14:35:32;37.50;20.00
13585;DHT22;6863;48.402;9.994;2023-06-14T14:37:58;37.20;20.30
13585;DHT22;6863;48.402;9.994;2023-06-14T14:40:24;35.60;20.70
13585;DHT22;6863;48.402;9.994;2023-06-14T14:42:50;34.80;21.10
13585;DHT22;6863;48.402;9.994;2023-06-14T14:45:16;34.80;21.90
13585;DHT22;6863;48.402;9.994;2023-06-14T14:47:41;34.70;22.00
13585;DHT22;6863;48.402;9.994;2023-06-14T14:50:07;34.90;21.80
13585;DHT22;6863;48.402;9.994;2023-06-14T14:52:36;33.90;22.80
13585;DHT22;6863;48.402;9.994;2023-06-14T14:55:02;32.60;23.40
13585;DHT22;6863;48.402;9.994;2023-06-14T14:57:28;32.00;24.10
13585;DHT22;6863;48.402;9.994;2023-06-14T14:59:55;31.10;24.60
13585;DHT22;6863;48.402;9.994;2023-06-14T15:02:21;31.00;24.80
13585;DHT22;6863;48.402;9.994;2023-06-14T15:04:48;30.90;25.50
13585;DHT22;6863;48.402;9.994;2023-06-14T15:07:13;30.80;25.10
13585;DHT22;6863;48.402;9.994;2023-06-14T15:09:39;30.80;25.10
13585;DHT22;6863;48.402;9.994;2023-06-14T15:12:06;30.20;26.10
13585;DHT22;6863;48.402;9.994;2023-06-14T15:14:32;29.60;26.40
13585;DHT22;6863;48.402;9.994;2023-06-14T15:16:58;28.70;27.00
13585;DHT22;6863;48.402;9.994;2023-06-14T15:19:23;28.50;27.70
13585;DHT22;6863;48.402;9.994;2023-06-14T15:21:49;28.50;27.30
13585;DHT22;6863;48.402;9.994;2023-06-14T15:24:15;28.50;27.60
13585;DHT22;6863;48.402;9.994;2023-06-14T15:26:40;28.40;27.80
13585;DHT22;6863;48.402;9.994;2023-06-14T15:29:06;28.60;27.40
13585;DHT22;6863;48.402;9.994;2023-06-14T15:31:32;28.20;27.40
13585;DHT22;6863;48.402;9.994;2023-06-14T15:33:57;28.10;28.00
13585;DHT22;6863;48.402;9.994;2023-06-14T15:36:24;28.20;27.70
13585;DHT22;6863;48.402;9.994;2023-06-14T15:38:50;27.40;28.70
13585;DHT22;6863;48.402;9.994;2023-06-14T15:41:15;27.50;28.50
13585;DHT22;6863;48.402;9.994;2023-06-14T15:43:41;26.80;28.90
13585;DHT22;6863;48.402;9.994;2023-06-14T15:46:07;26.80;29.00
13585;DHT22;6863;48.402;9.994;2023-06-14T15:48:32;26.80;29.20
13585;DHT22;6863;48.402;9.994;2023-06-14T15:50:58;27.00;29.60
13585;DHT22;6863;48.402;9.994;2023-06-14T15:53:24;27.10;29.20
13585;DHT22;6863;48.402;9.994;2023-06-14T15:55:52;27.30;28.90
13585;DHT22;6863;48.402;9.994;2023-06-14T15:58:18;27.20;28.90
13585;DHT22;6863;48.402;9.994;2023-06-14T16:00:44;27.20;29.00
13585;DHT22;6863;48.402;9.994;2023-06-14T16:03:10;27.10;29.10
13585;DHT22;6863;48.402;9.994;2023-06-14T16:05:35;27.30;29.50
13585;DHT22;6863;48.402;9.994;2023-06-14T16:08:01;27.40;29.50